Time;durP1;ratioP1;P1;durP2;ratioP2;P2;SDS_P1;SDS_P2;PMS_P1;PMS_P2;Temp;Humidity;BMP_temperature;BMP_pressure;BME280_temperature;BME280_humidity;BME280_pressure;Samples;Min_cycle;Max_cycle;Signal;HPM_P1;HPM_P2
2021/01/15 00:01:09;;;;;;;2.10;1.90;;;2.70;99.90;;;;;;6122737;23;20215;-81
2021/01/15 00:03:36;;;;;;;2.92;2.05;;;2.70;99.90;;;;;;6123077;23;20191;-80
2021/01/15 00:06:06;;;;;;;3.20;2.13;;;2.70;99.90;;;;;;6097152;23;20575;-80
2021/01/15 00:08:40;;;;;;;4.00;2.10;;;2.70;99.90;;;;;;6122541;23;20175;-81
2021/01/15 00:11:14;;;;;;;2.33;1.80;;;2.60;99.90;;;;;;6123623;23;20218;-81
2021/01/15 00:13:40;;;;;;;2.72;1.85;;;2.60;99.90;;;;;;6097592;23;20214;-80
2021/01/15 00:16:06;;;;;;;2.83;2.43;;;2.60;99.90;;;;;;6073959;23;20182;-80
2021/01/15 00:18:32;;;;;;;2.63;2.20;;;2.60;99.90;;;;;;6072073;23;20591;-81
2021/01/15 00:20:58;;;;;;;2.20;1.60;;;2.60;99.90;;;;;;6096808;23;20530;-80
2021/01/15 00:23:26;;;;;;;2.70;2.10;;;2.60;99.90;;;;;;6097925;23;20701;-80
2021/01/15 00:25:52;;;;;;;5.43;2.57;;;2.60;99.90;;;;;;6099432;23;20139;-80
2021/01/15 00:28:20;;;;;;;2.80;2.30;;;2.50;99.90;;;;;;6122158;23;20893;-80
2021/01/15 00:30:49;;;;;;;6.10;2.55;;;2.50;99.90;;;;;;6097656;23;20942;-80
2021/01/15 00:33:25;;;;;;;5.15;2.95;;;2.60;99.90;;;;;;6053264;23;20469;-80
2021/01/15 00:35:50;;;;;;;3.33;2.37;;;2.50;99.90;;;;;;6096129;23;20201;-80
2021/01/15 00:38:16;;;;;;;2.90;2.60;;;2.60;99.90;;;;;;6121928;23;20193;-80
2021/01/15 00:40:42;;;;;;;3.90;2.80;;;2.60;99.90;;;;;;6096283;23;20163;-80
2021/01/15 00:43:11;;;;;;;3.83;2.92;;;2.60;99.90;;;;;;6122387;23;21158;-80
2021/01/15 00:45:38;;;;;;;5.68;3.20;;;2.60;99.90;;;;;;6122581;23;20150;-80
2021/01/15 00:48:04;;;;;;;4.97;2.95;;;2.60;99.90;;;;;;6095973;23;20174;-80
2021/01/15 00:50:30;;;;;;;3.80;2.80;;;2.60;99.90;;;;;;6122528;23;20147;-80
2021/01/15 00:52:56;;;;;;;3.90;2.83;;;2.50;99.90;;;;;;6097233;23;20170;-80
2021/01/15 00:55:21;;;;;;;3.80;3.30;;;2.50;99.90;;;;;;6096577;23;20206;-80
2021/01/15 00:57:47;;;;;;;3.53;2.37;;;2.50;99.90;;;;;;6095883;23;20559;-80
2021/01/15 01:00:14;;;;;;;2.88;1.88;;;2.50;99.90;;;;;;6073590;23;20539;-80
2021/01/15 01:02:52;;;;;;;3.72;2.60;;;2.50;99.90;;;;;;6102353;23;20146;-81
2021/01/15 01:05:21;;;;;;;3.75;2.20;;;2.50;99.90;;;;;;6074784;23;20201;-81
2021/01/15 01:07:49;;;;;;;4.10;2.55;;;2.50;99.90;;;;;;6073793;23;20899;-81
2021/01/15 01:10:15;;;;;;;4.38;2.60;;;2.50;99.90;;;;;;6121042;23;20158;-80
2021/01/15 01:12:42;;;;;;;4.88;3.53;;;2.40;99.90;;;;;;6124627;23;20226;-81
2021/01/15 01:15:12;;;;;;;5.72;3.08;;;2.40;99.90;;;;;;6074392;23;20189;-81
2021/01/15 01:17:39;;;;;;;4.85;3.65;;;2.40;99.90;;;;;;6123859;23;20218;-81
2021/01/15 01:20:06;;;;;;;3.30;2.33;;;2.30;99.90;;;;;;6098020;23;20185;-81
2021/01/15 01:22:32;;;;;;;3.95;2.97;;;2.30;99.90;;;;;;6098424;23;20612;-81
2021/01/15 01:24:58;;;;;;;4.10;3.28;;;2.30;99.90;;;;;;6124085;23;20541;-81
2021/01/15 01:27:24;;;;;;;3.55;2.90;;;2.30;99.90;;;;;;6122245;23;20217;-81
2021/01/15 01:29:52;;;;;;;3.43;2.50;;;2.30;99.90;;;;;;6098363;23;20230;-81
2021/01/15 01:32:21;;;;;;;3.08;2.35;;;2.20;99.90;;;;;;6146995;23;20570;-81
2021/01/15 01:34:47;;;;;;;3.23;1.90;;;2.20;99.90;;;;;;6124045;23;20586;-81
2021/01/15 01:37:13;;;;;;;2.23;1.50;;;2.20;99.90;;;;;;6122087;23;20154;-80
2021/01/15 01:39:39;;;;;;;5.20;1.90;;;2.20;99.90;;;;;;6123419;23;20558;-78
2021/01/15 01:42:05;;;;;;;4.23;1.50;;;2.20;99.90;;;;;;6078478;23;20543;-83
2021/01/15 01:44:30;;;;;;;3.22;2.08;;;2.20;99.90;;;;;;6123649;23;20567;-82
2021/01/15 01:46:57;;;;;;;3.20;2.10;;;2.10;99.90;;;;;;6126362;23;20221;-83
2021/01/15 01:49:23;;;;;;;2.60;1.90;;;2.10;99.90;;;;;;6151042;23;20175;-83
2021/01/15 01:51:50;;;;;;;2.38;1.90;;;2.10;99.90;;;;;;6109908;23;20157;-84
2021/01/15 01:54:18;;;;;;;2.65;1.77;;;2.10;99.90;;;;;;6136453;23;20161;-84
2021/01/15 01:56:44;;;;;;;2.72;1.88;;;2.10;99.90;;;;;;6135382;23;20163;-84
2021/01/15 01:59:12;;;;;;;2.67;2.03;;;2.10;99.90;;;;;;6131048;23;20178;-83
2021/01/15 02:01:38;;;;;;;1.50;1.33;;;2.10;99.90;;;;;;6130171;23;20543;-83
2021/01/15 02:04:05;;;;;;;1.87;1.57;;;2.10;99.90;;;;;;6105111;23;20182;-83
2021/01/15 02:06:32;;;;;;;3.65;1.67;;;2.10;99.90;;;;;;6132489;23;20533;-83
2021/01/15 02:08:58;;;;;;;2.53;1.58;;;2.20;99.90;;;;;;6125634;23;20179;-83
2021/01/15 02:11:57;;;;;;;2.63;1.70;;;2.20;99.90;;;;;;6124446;23;20139;-83
2021/01/15 02:14:29;;;;;;;2.47;1.58;;;2.20;99.90;;;;;;6125432;23;20498;-83
2021/01/15 02:16:56;;;;;;;2.22;1.38;;;2.30;99.90;;;;;;6126517;23;20238;-83
2021/01/15 02:19:25;;;;;;;2.97;1.60;;;2.30;99.90;;;;;;6103022;23;20171;-83
2021/01/15 02:21:57;;;;;;;1.70;1.20;;;2.40;99.90;;;;;;6099563;23;20155;-83
2021/01/15 02:24:35;;;;;;;1.35;1.00;;;2.50;99.90;;;;;;6099933;23;20179;-83
2021/01/15 02:27:18;;;;;;;2.72;1.70;;;2.50;99.90;;;;;;6131997;23;20688;-83
2021/01/15 02:30:07;;;;;;;2.30;1.45;;;2.60;99.90;;;;;;6135624;23;20128;-83
2021/01/15 02:32:46;;;;;;;2.50;1.50;;;2.70;99.90;;;;;;6126638;23;20181;-83
2021/01/15 02:35:23;;;;;;;2.80;2.15;;;2.80;99.90;;;;;;6126921;23;20147;-83
2021/01/15 02:38:24;;;;;;;2.92;2.20;;;2.80;99.90;;;;;;6099907;23;20163;-83
2021/01/15 02:41:05;;;;;;;2.88;2.17;;;2.90;99.90;;;;;;6124960;23;20597;-83
2021/01/15 02:43:33;;;;;;;2.90;2.30;;;3.00;99.90;;;;;;6124554;23;20179;-83
2021/01/15 02:46:02;;;;;;;4.10;2.67;;;3.10;99.90;;;;;;6074089;23;20151;-83
2021/01/15 02:48:30;;;;;;;3.70;2.85;;;3.10;99.90;;;;;;6098751;23;20170;-83
2021/01/15 02:50:59;;;;;;;3.20;2.90;;;3.20;99.90;;;;;;6099038;23;20518;-83
2021/01/15 02:53:26;;;;;;;4.75;3.10;;;3.20;99.90;;;;;;6125783;23;20156;-83
2021/01/15 02:55:51;;;;;;;3.00;2.33;;;3.30;99.90;;;;;;6103218;23;20143;-83
2021/01/15 02:58:17;;;;;;;3.60;2.73;;;3.30;99.90;;;;;;6124319;23;20171;-83
2021/01/15 03:00:44;;;;;;;4.20;2.87;;;3.40;99.90;;;;;;6124676;23;20598;-83
2021/01/15 03:03:42;;;;;;;3.92;2.72;;;3.40;99.90;;;;;;6126817;23;20203;-83
2021/01/15 03:06:20;;;;;;;4.38;3.05;;;3.50;99.90;;;;;;6045449;23;20182;-83
2021/01/15 03:08:48;;;;;;;4.93;2.67;;;3.50;99.90;;;;;;6124417;23;20185;-84
2021/01/15 03:11:15;;;;;;;4.82;3.17;;;3.60;99.90;;;;;;6100853;23;20154;-84
2021/01/15 03:13:43;;;;;;;3.15;2.88;;;3.60;99.90;;;;;;6126288;23;20241;-83
2021/01/15 03:16:10;;;;;;;7.38;2.78;;;3.70;99.90;;;;;;6125966;23;20151;-84
2021/01/15 03:18:37;;;;;;;4.65;2.92;;;3.70;99.90;;;;;;6099703;23;20175;-83
2021/01/15 03:21:05;;;;;;;3.50;3.08;;;3.70;99.90;;;;;;6126325;23;20151;-83
2021/01/15 03:23:36;;;;;;;4.43;3.10;;;3.80;99.90;;;;;;6128075;23;20230;-83
2021/01/15 03:26:03;;;;;;;3.03;2.20;;;3.80;99.90;;;;;;6106371;23;20319;-83
2021/01/15 03:28:29;;;;;;;4.22;2.95;;;3.80;99.90;;;;;;6128987;23;20186;-83
2021/01/15 03:30:54;;;;;;;2.10;1.90;;;3.90;99.90;;;;;;6130520;23;20230;-83
2021/01/15 03:33:20;;;;;;;3.63;2.63;;;3.90;99.90;;;;;;6134280;23;20535;-84
2021/01/15 03:35:46;;;;;;;3.57;2.60;;;3.90;99.90;;;;;;6129225;23;20673;-84
2021/01/15 03:38:13;;;;;;;2.93;2.40;;;3.90;99.90;;;;;;6102358;23;20175;-83
2021/01/15 03:40:44;;;;;;;3.75;3.30;;;4.00;99.90;;;;;;6130699;23;20154;-83
2021/01/15 03:43:21;;;;;;;3.72;3.42;;;4.00;99.90;;;;;;6137847;23;20177;-83
2021/01/15 03:45:51;;;;;;;3.55;3.25;;;4.00;99.90;;;;;;6108705;23;20226;-83
2021/01/15 03:48:18;;;;;;;3.05;2.55;;;4.00;99.90;;;;;;6108092;23;20163;-83
2021/01/15 03:50:45;;;;;;;4.32;2.60;;;4.00;99.90;;;;;;6126788;23;20182;-83
2021/01/15 03:53:14;;;;;;;2.72;2.40;;;4.00;99.90;;;;;;6085188;23;20155;-83
2021/01/15 03:55:40;;;;;;;3.85;2.63;;;4.00;99.90;;;;;;6133391;23;20151;-83
2021/01/15 03:58:06;;;;;;;3.40;2.00;;;4.00;99.90;;;;;;6131356;23;20197;-83
2021/01/15 04:00:32;;;;;;;3.60;2.60;;;4.00;99.90;;;;;;6082046;23;20543;-83
2021/01/15 04:02:57;;;;;;;3.40;2.53;;;4.00;99.90;;;;;;6126057;23;20523;-83
2021/01/15 04:05:23;;;;;;;2.93;2.57;;;4.00;99.90;;;;;;6097910;23;20146;-83
2021/01/15 04:07:49;;;;;;;4.47;2.77;;;4.10;99.90;;;;;;6111075;23;20159;-84
2021/01/15 04:10:18;;;;;;;5.00;3.30;;;4.10;99.90;;;;;;6150501;23;20546;-84
2021/01/15 04:12:45;;;;;;;4.10;2.60;;;4.10;99.90;;;;;;6149956;23;20161;-84
2021/01/15 04:15:16;;;;;;;2.60;2.40;;;4.10;99.90;;;;;;6118897;23;20162;-84
2021/01/15 04:17:42;;;;;;;3.60;2.47;;;4.10;99.90;;;;;;6140886;23;20182;-84
2021/01/15 04:20:10;;;;;;;4.28;3.05;;;4.20;99.90;;;;;;6111007;23;20656;-83
2021/01/15 04:22:38;;;;;;;4.45;2.78;;;4.20;99.90;;;;;;6133941;23;20155;-83
2021/01/15 04:25:05;;;;;;;4.75;3.58;;;4.20;99.90;;;;;;6132238;23;20229;-83
2021/01/15 04:27:31;;;;;;;3.10;2.72;;;4.20;99.90;;;;;;6078608;23;20201;-83
2021/01/15 04:29:58;;;;;;;3.33;3.03;;;4.20;99.90;;;;;;6132725;23;20290;-83
2021/01/15 04:32:24;;;;;;;4.10;3.70;;;4.20;99.90;;;;;;6135816;23;20219;-83
2021/01/15 04:34:51;;;;;;;4.85;3.67;;;4.20;99.90;;;;;;6134724;23;20146;-83
2021/01/15 04:37:17;;;;;;;4.50;3.50;;;4.30;99.90;;;;;;6084973;23;20677;-83
2021/01/15 04:39:43;;;;;;;4.53;4.00;;;4.30;99.90;;;;;;6131316;23;20155;-82
2021/01/15 04:42:12;;;;;;;5.33;3.70;;;4.30;99.90;;;;;;6126814;23;20779;-82
2021/01/15 04:44:39;;;;;;;5.10;3.72;;;4.40;99.90;;;;;;6146078;23;20159;-83
2021/01/15 04:47:06;;;;;;;5.07;4.13;;;4.40;99.90;;;;;;6147952;23;20143;-83
2021/01/15 04:49:35;;;;;;;10.10;5.75;;;4.40;99.90;;;;;;6118813;23;20158;-83
2021/01/15 04:52:02;;;;;;;5.03;3.90;;;4.40;99.90;;;;;;6144963;23;20428;-83
2021/01/15 04:54:38;;;;;;;6.47;5.20;;;4.40;99.90;;;;;;6137125;23;20147;-83
2021/01/15 04:57:06;;;;;;;6.50;5.15;;;4.40;99.90;;;;;;6129771;23;20210;-83
2021/01/15 04:59:42;;;;;;;4.85;4.05;;;4.50;99.90;;;;;;6126765;23;20161;-84
2021/01/15 05:02:09;;;;;;;6.82;5.53;;;4.50;99.90;;;;;;6099761;23;20143;-84
2021/01/15 05:04:35;;;;;;;6.22;4.10;;;4.50;99.90;;;;;;6128706;23;20245;-83
2021/01/15 05:07:04;;;;;;;4.88;4.45;;;4.50;99.90;;;;;;6127521;23;20150;-84
2021/01/15 05:09:41;;;;;;;6.38;5.78;;;4.60;99.90;;;;;;6126166;23;20549;-83
2021/01/15 05:12:12;;;;;;;4.97;3.88;;;4.60;99.90;;;;;;6126241;23;20132;-84
2021/01/15 05:14:38;;;;;;;6.43;4.97;;;4.60;99.90;;;;;;6099991;23;20171;-84
2021/01/15 05:17:07;;;;;;;6.30;4.97;;;4.70;99.90;;;;;;6100856;23;20159;-83
2021/01/15 05:19:37;;;;;;;6.10;5.25;;;4.70;99.90;;;;;;6126612;23;20143;-83
2021/01/15 05:22:03;;;;;;;8.40;5.53;;;4.70;99.90;;;;;;6101862;23;20131;-84
2021/01/15 05:24:29;;;;;;;6.18;5.25;;;4.70;99.90;;;;;;6132077;23;20175;-83
2021/01/15 05:26:55;;;;;;;6.20;5.10;;;4.70;99.90;;;;;;6103600;23;20151;-83
2021/01/15 05:29:21;;;;;;;6.63;5.90;;;4.80;99.90;;;;;;6132782;23;20205;-82
2021/01/15 05:31:54;;;;;;;6.43;5.80;;;4.80;99.90;;;;;;6131645;23;20147;-83
2021/01/15 05:34:24;;;;;;;6.25;5.65;;;4.80;99.90;;;;;;6129071;23;20484;-82
2021/01/15 05:36:51;;;;;;;7.78;5.90;;;4.80;99.90;;;;;;6097378;23;20485;-82
2021/01/15 05:39:25;;;;;;;6.78;5.07;;;4.90;99.90;;;;;;6122505;23;20177;-82
2021/01/15 05:42:00;;;;;;;6.20;5.15;;;4.90;99.90;;;;;;6073421;23;20507;-83
2021/01/15 05:44:28;;;;;;;4.28;3.88;;;4.90;99.90;;;;;;6073462;23;20242;-82
2021/01/15 05:46:56;;;;;;;5.72;5.15;;;4.90;99.90;;;;;;6124888;23;20634;-83
2021/01/15 05:49:22;;;;;;;7.57;5.32;;;4.90;99.90;;;;;;6099085;23;20175;-83
2021/01/15 05:51:47;;;;;;;7.43;5.70;;;4.90;99.90;;;;;;6134563;23;20147;-83
2021/01/15 05:54:28;;;;;;;5.63;4.83;;;4.90;99.90;;;;;;6101507;23;20594;-83
2021/01/15 05:56:55;;;;;;;5.78;5.05;;;4.90;99.90;;;;;;6127514;23;20607;-83
2021/01/15 05:59:21;;;;;;;5.30;4.38;;;4.90;99.90;;;;;;6079595;23;20175;-82
2021/01/15 06:01:48;;;;;;;6.90;5.93;;;5.00;99.90;;;;;;6139926;23;20174;-81
2021/01/15 06:04:32;;;;;;;14.95;6.22;;;4.90;99.90;;;;;;6128144;23;20179;-82
2021/01/15 06:07:00;;;;;;;4.28;3.88;;;4.90;99.90;;;;;;6105116;23;20628;-82
2021/01/15 06:09:27;;;;;;;5.85;5.25;;;5.00;99.90;;;;;;6123794;23;20163;-82
2021/01/15 06:12:03;;;;;;;6.07;5.47;;;5.00;99.90;;;;;;6126329;23;20158;-82
2021/01/15 06:14:29;;;;;;;12.95;5.80;;;5.00;99.90;;;;;;6131709;23;20195;-83
2021/01/15 06:17:08;;;;;;;6.60;5.37;;;5.00;99.90;;;;;;6129533;23;20474;-82
2021/01/15 06:19:45;;;;;;;5.80;5.20;;;5.00;99.90;;;;;;6124011;23;20135;-82
2021/01/15 06:22:29;;;;;;;6.25;5.60;;;5.00;99.90;;;;;;6123137;23;20616;-82
2021/01/15 06:25:17;;;;;;;7.18;6.47;;;5.00;99.90;;;;;;6126777;23;20170;-80
2021/01/15 06:27:43;;;;;;;6.90;5.65;;;5.00;99.90;;;;;;6125916;23;20167;-81
2021/01/15 06:30:18;;;;;;;6.47;5.55;;;5.00;99.90;;;;;;6130854;23;20147;-81
2021/01/15 06:32:46;;;;;;;8.90;4.82;;;5.00;99.90;;;;;;6137573;23;20247;-80
2021/01/15 06:35:32;;;;;;;5.43;4.88;;;5.00;99.90;;;;;;6122190;23;20159;-81
2021/01/15 06:38:09;;;;;;;7.72;5.47;;;5.00;99.90;;;;;;6124065;23;20171;-81
2021/01/15 06:40:41;;;;;;;6.82;5.60;;;5.00;99.90;;;;;;6123317;23;20147;-81
2021/01/15 06:43:09;;;;;;;6.05;5.25;;;5.00;99.90;;;;;;6123445;23;20149;-80
2021/01/15 06:45:39;;;;;;;10.37;8.27;;;5.00;99.90;;;;;;6123098;23;20736;-79
2021/01/15 06:48:16;;;;;;;9.00;8.10;;;4.90;99.90;;;;;;6123185;23;21011;-81
2021/01/15 06:50:48;;;;;;;7.88;6.65;;;4.90;99.90;;;;;;6151241;23;20589;-84
2021/01/15 06:53:15;;;;;;;8.85;6.10;;;5.00;99.90;;;;;;6124222;23;20217;-80
2021/01/15 06:55:49;;;;;;;8.52;6.93;;;5.00;99.90;;;;;;6125783;23;21204;-80
2021/01/15 06:58:29;;;;;;;7.20;5.75;;;5.10;99.90;;;;;;6125128;23;20195;-81
2021/01/15 07:01:24;;;;;;;8.80;7.00;;;5.10;99.90;;;;;;6122882;23;20238;-81
2021/01/15 07:04:17;;;;;;;7.97;6.35;;;5.10;99.90;;;;;;6125249;23;20179;-82
2021/01/15 07:07:10;;;;;;;7.45;5.97;;;5.10;99.90;;;;;;6130187;23;20135;-82
2021/01/15 07:09:36;;;;;;;6.05;5.28;;;5.00;99.90;;;;;;6126198;23;20155;-81
2021/01/15 07:12:05;;;;;;;8.45;6.40;;;5.10;99.90;;;;;;6127499;23;20151;-80
2021/01/15 07:14:43;;;;;;;7.22;6.53;;;5.00;99.90;;;;;;6123451;23;20135;-79
2021/01/15 07:17:14;;;;;;;6.70;6.10;;;5.00;99.90;;;;;;6126692;23;20138;-80
2021/01/15 07:19:43;;;;;;;7.07;5.93;;;5.00;99.90;;;;;;6121944;23;20140;-81
2021/01/15 07:22:11;;;;;;;9.73;6.80;;;5.00;99.90;;;;;;6121420;23;20520;-80
2021/01/15 07:24:39;;;;;;;10.00;6.82;;;4.90;99.90;;;;;;6123133;23;20174;-80
2021/01/15 07:27:06;;;;;;;9.00;7.22;;;4.90;99.90;;;;;;6123534;23;20491;-80
2021/01/15 07:29:35;;;;;;;8.88;7.60;;;4.90;99.90;;;;;;6122594;23;20521;-80
2021/01/15 07:32:07;;;;;;;8.82;7.93;;;4.90;99.90;;;;;;6097041;23;21087;-80
2021/01/15 07:34:37;;;;;;;9.90;8.90;;;4.90;99.90;;;;;;6123346;23;20488;-81
2021/01/15 07:37:26;;;;;;;8.82;7.70;;;4.80;99.90;;;;;;6123970;23;20139;-80
2021/01/15 07:39:59;;;;;;;12.82;11.45;;;4.90;99.90;;;;;;6122851;23;20663;-80
2021/01/15 07:42:39;;;;;;;11.30;10.20;;;4.80;99.90;;;;;;6123664;23;20174;-80
2021/01/15 07:45:07;;;;;;;9.65;8.65;;;4.80;99.90;;;;;;6124368;23;20309;-77
2021/01/15 07:47:40;;;;;;;9.32;8.30;;;4.90;99.90;;;;;;6121019;23;20676;-76
2021/01/15 07:50:06;;;;;;;14.20;12.75;;;4.90;99.90;;;;;;6120410;23;20652;-76
2021/01/15 07:52:33;;;;;;;11.95;10.65;;;4.80;99.90;;;;;;6125857;23;20518;-76
2021/01/15 07:55:03;;;;;;;13.48;11.10;;;4.80;99.90;;;;;;6123982;23;20157;-76
2021/01/15 07:57:31;;;;;;;13.00;11.30;;;4.80;99.90;;;;;;6120332;23;20676;-76
2021/01/15 08:00:17;;;;;;;12.55;10.95;;;4.80;99.90;;;;;;6096186;23;20151;-77
2021/01/15 08:02:43;;;;;;;14.48;10.68;;;4.80;99.90;;;;;;6120833;23;20159;-77
2021/01/15 08:05:10;;;;;;;14.03;11.97;;;4.90;99.90;;;;;;6122051;23;20185;-76
2021/01/15 08:07:36;;;;;;;11.82;10.07;;;4.90;99.90;;;;;;6096099;23;21012;-76
2021/01/15 08:10:02;;;;;;;11.45;10.25;;;4.90;99.90;;;;;;6121869;23;20258;-76
2021/01/15 08:12:40;;;;;;;18.90;16.90;;;4.90;99.90;;;;;;6120995;23;20680;-77
2021/01/15 08:15:26;;;;;;;14.00;12.60;;;4.80;99.90;;;;;;6122437;23;20171;-76
2021/01/15 08:17:52;;;;;;;13.43;12.07;;;4.80;99.90;;;;;;6095926;23;20175;-76
2021/01/15 08:20:18;;;;;;;11.15;10.05;;;4.90;99.90;;;;;;6122141;23;20155;-77
2021/01/15 08:22:47;;;;;;;16.00;13.30;;;4.90;99.90;;;;;;6096487;23;20147;-77
2021/01/15 08:25:23;;;;;;;17.53;15.60;;;5.00;99.90;;;;;;6095713;23;20786;-77
2021/01/15 08:27:49;;;;;;;18.20;15.88;;;4.90;99.90;;;;;;6095856;23;21182;-77
2021/01/15 08:30:27;;;;;;;17.80;14.23;;;4.90;99.90;;;;;;6099364;23;20177;-77
2021/01/15 08:32:53;;;;;;;16.40;12.43;;;5.00;99.90;;;;;;6124143;23;20182;-77
2021/01/15 08:35:27;;;;;;;14.55;12.65;;;5.00;99.90;;;;;;6122433;23;20147;-77
2021/01/15 08:38:01;;;;;;;13.18;10.35;;;5.00;99.90;;;;;;6124477;23;20174;-76
2021/01/15 08:40:38;;;;;;;21.55;19.00;;;5.10;99.90;;;;;;6073838;23;20698;-77
2021/01/15 08:43:07;;;;;;;17.40;15.60;;;4.90;99.90;;;;;;6026985;23;20156;-77
2021/01/15 08:45:35;;;;;;;16.73;14.55;;;5.10;99.90;;;;;;6049430;23;20155;-77
2021/01/15 10:43:58;;;;;;;19.48;17.40;;;6.10;99.90;;;;;;5865007;24;20705;-76
2021/01/15 10:46:28;;;;;;;17.08;13.30;;;5.80;99.90;;;;;;5937884;23;20165;-77
2021/01/15 10:53:09;;;;;;;15.10;12.02;;;5.90;99.90;;;;;;6121128;23;20177;-76
2021/01/15 11:00:23;;;;;;;19.80;17.43;;;6.00;99.90;;;;;;6125888;23;20687;-77
2021/01/15 11:03:34;;;;;;;17.42;14.15;;;5.80;99.90;;;;;;6122073;23;20547;-77
2021/01/15 11:06:20;;;;;;;21.05;15.40;;;5.80;99.90;;;;;;6122152;23;20210;-77
2021/01/15 11:09:02;;;;;;;19.08;14.70;;;5.90;99.90;;;;;;6121555;23;20217;-77
2021/01/15 11:11:58;;;;;;;19.40;14.88;;;5.90;99.90;;;;;;6123670;23;20151;-78
2021/01/15 11:14:49;;;;;;;19.73;15.00;;;5.80;99.90;;;;;;6122163;23;20147;-76
2021/01/15 11:17:25;;;;;;;18.00;13.35;;;5.80;99.90;;;;;;6122439;23;20294;-76
2021/01/15 11:19:55;;;;;;;19.13;13.38;;;5.80;99.90;;;;;;6123223;23;20139;-76
2021/01/15 11:22:51;;;;;;;23.20;19.48;;;5.80;99.90;;;;;;6121382;23;20651;-76
2021/01/15 11:25:54;;;;;;;20.30;15.60;;;5.70;99.90;;;;;;6121155;23;20268;-76
2021/01/15 11:28:34;;;;;;;22.42;17.88;;;5.80;99.90;;;;;;6095001;23;21039;-76
2021/01/15 11:31:34;;;;;;;24.35;15.73;;;5.80;99.90;;;;;;6122983;23;20138;-76
2021/01/15 11:34:29;;;;;;;17.13;13.52;;;5.90;99.90;;;;;;6109454;23;20155;-76
2021/01/15 11:37:07;;;;;;;18.98;13.80;;;6.00;99.90;;;;;;6126389;23;20154;-76
2021/01/15 11:39:39;;;;;;;22.38;17.40;;;6.00;99.90;;;;;;6121883;23;20648;-76
2021/01/15 11:42:07;;;;;;;20.52;15.55;;;5.90;99.90;;;;;;6122211;23;20151;-76
2021/01/15 11:44:33;;;;;;;19.67;15.43;;;6.00;99.90;;;;;;6122197;23;20175;-76
2021/01/15 11:46:59;;;;;;;20.23;15.13;;;6.10;99.90;;;;;;6122937;23;20726;-76
2021/01/15 11:49:25;;;;;;;17.20;13.43;;;6.20;99.90;;;;;;6122162;23;20574;-76
2021/01/15 11:51:57;;;;;;;19.63;13.30;;;6.20;99.90;;;;;;6122358;23;20478;-76
2021/01/15 11:54:23;;;;;;;16.60;12.70;;;6.20;99.90;;;;;;6122815;23;20198;-76
2021/01/15 11:56:49;;;;;;;17.60;13.80;;;6.30;99.90;;;;;;6122690;23;20169;-77
2021/01/15 11:59:15;;;;;;;13.83;12.07;;;6.40;99.90;;;;;;6122176;23;20665;-76
2021/01/15 12:01:40;;;;;;;16.53;12.67;;;6.40;99.90;;;;;;6122596;23;20598;-76
2021/01/15 12:04:06;;;;;;;15.70;11.67;;;6.50;99.90;;;;;;6073070;23;20598;-76
2021/01/15 12:06:32;;;;;;;14.23;12.73;;;6.60;99.90;;;;;;6122939;23;20147;-76
2021/01/15 12:08:59;;;;;;;17.53;14.77;;;6.70;99.90;;;;;;6072467;23;20171;-76
2021/01/15 12:11:25;;;;;;;15.88;13.57;;;6.80;99.90;;;;;;6122557;23;20516;-75
2021/01/15 12:13:51;;;;;;;15.70;13.18;;;6.80;99.90;;;;;;6077851;23;20153;-76
2021/01/15 12:16:21;;;;;;;16.00;11.17;;;7.00;99.90;;;;;;6097159;23;20230;-75
2021/01/15 12:18:47;;;;;;;14.00;12.13;;;7.00;99.90;;;;;;6072370;23;20540;-76
2021/01/15 12:21:17;;;;;;;15.77;11.47;;;7.10;99.90;;;;;;6122558;23;20170;-76
2021/01/15 12:23:44;;;;;;;14.82;12.30;;;7.20;99.90;;;;;;6096987;23;20536;-75
2021/01/15 12:26:09;;;;;;;13.63;11.50;;;7.20;99.90;;;;;;6096713;23;20161;-76
2021/01/15 12:28:35;;;;;;;13.27;10.87;;;7.30;99.90;;;;;;6096339;23;20245;-76
2021/01/15 12:31:01;;;;;;;13.90;10.83;;;7.40;99.90;;;;;;6096493;23;20147;-76
2021/01/15 12:33:27;;;;;;;13.93;11.43;;;7.40;99.90;;;;;;6122914;23;20520;-76
2021/01/15 12:35:53;;;;;;;14.90;12.77;;;7.50;99.90;;;;;;6122610;23;20205;-76
2021/01/15 12:38:20;;;;;;;13.73;11.30;;;7.50;99.90;;;;;;6122422;23;20171;-76
2021/01/15 12:40:47;;;;;;;16.73;11.85;;;7.60;99.90;;;;;;6122367;23;20167;-75
2021/01/15 12:43:13;;;;;;;14.45;12.27;;;7.70;99.90;;;;;;6096363;23;20170;-76
2021/01/15 12:45:44;;;;;;;11.43;10.23;;;7.70;99.90;;;;;;6122434;23;20186;-76
2021/01/15 12:48:11;;;;;;;13.00;11.38;;;7.60;99.90;;;;;;6121979;23;20179;-76
2021/01/15 12:50:37;;;;;;;11.85;9.77;;;7.70;99.90;;;;;;6126420;23;20144;-76
2021/01/15 12:53:07;;;;;;;12.23;10.93;;;7.60;99.90;;;;;;6123718;23;20151;-76
2021/01/15 12:55:33;;;;;;;12.83;9.90;;;7.70;99.90;;;;;;6097911;23;20178;-76
2021/01/15 12:58:00;;;;;;;8.70;7.80;;;7.70;99.90;;;;;;6107957;23;20652;-76
2021/01/15 13:00:27;;;;;;;8.18;7.38;;;7.60;99.90;;;;;;6135046;23;20166;-75
2021/01/15 13:02:53;;;;;;;12.10;9.65;;;7.60;99.90;;;;;;6127009;23;20174;-76
2021/01/15 13:05:20;;;;;;;10.13;7.80;;;7.60;99.90;;;;;;6098951;23;20257;-76
2021/01/15 13:07:46;;;;;;;9.70;8.70;;;7.60;99.90;;;;;;6123988;23;20163;-76
2021/01/15 13:10:12;;;;;;;12.50;9.43;;;7.50;99.90;;;;;;6098018;23;20148;-76
2021/01/15 13:12:39;;;;;;;9.52;8.20;;;7.50;99.90;;;;;;6124580;23;20460;-76
2021/01/15 13:15:06;;;;;;;10.88;9.70;;;7.50;99.90;;;;;;6098924;23;20151;-76
2021/01/15 13:17:45;;;;;;;7.32;6.63;;;7.50;99.90;;;;;;6098444;23;20226;-76
2021/01/15 13:20:11;;;;;;;10.70;8.15;;;7.50;99.90;;;;;;6123802;23;20736;-76
2021/01/15 13:22:37;;;;;;;10.77;9.15;;;7.50;99.90;;;;;;6098337;23;20170;-76
2021/01/15 13:25:03;;;;;;;9.80;7.60;;;7.50;99.90;;;;;;6124647;23;20642;-76
2021/01/15 13:27:29;;;;;;;9.77;7.07;;;7.50;99.90;;;;;;6074670;23;20559;-76
2021/01/15 13:29:54;;;;;;;6.73;5.13;;;7.50;99.90;;;;;;6101988;23;20198;-76
2021/01/15 13:32:20;;;;;;;5.50;4.27;;;7.40;99.90;;;;;;6098108;23;20151;-75
2021/01/15 13:34:46;;;;;;;5.30;4.80;;;7.40;99.90;;;;;;6123199;23;20670;-76
2021/01/15 13:37:12;;;;;;;5.20;4.60;;;7.20;99.90;;;;;;6099144;23;20197;-76
2021/01/15 13:39:38;;;;;;;9.23;6.00;;;7.30;99.90;;;;;;6104185;23;20155;-75
2021/01/15 13:42:04;;;;;;;4.87;4.37;;;7.30;99.90;;;;;;6131624;23;20203;-76
2021/01/15 13:44:30;;;;;;;6.82;6.13;;;7.30;99.90;;;;;;6130699;23;20688;-77
2021/01/15 13:46:56;;;;;;;8.95;7.28;;;7.30;99.90;;;;;;6123532;23;20675;-77
2021/01/15 13:49:22;;;;;;;7.17;6.33;;;7.10;99.90;;;;;;6130622;23;20611;-77
2021/01/15 13:51:52;;;;;;;7.67;5.23;;;7.10;99.90;;;;;;6130544;23;20147;-77
2021/01/15 13:54:18;;;;;;;5.10;3.83;;;7.10;99.90;;;;;;6124668;23;20683;-77
2021/01/15 13:56:44;;;;;;;6.55;4.53;;;7.10;99.90;;;;;;6125784;23;20147;-77
2021/01/15 13:59:09;;;;;;;5.70;4.50;;;7.00;99.90;;;;;;6123885;23;20290;-77
2021/01/15 14:01:38;;;;;;;4.97;3.90;;;7.00;99.90;;;;;;6124071;23;21073;-77
2021/01/15 14:04:04;;;;;;;4.38;3.25;;;7.00;99.90;;;;;;6098683;23;20229;-77
2021/01/15 14:06:36;;;;;;;3.67;2.53;;;6.90;99.90;;;;;;6127519;23;20155;-77
2021/01/15 14:09:01;;;;;;;3.35;3.05;;;6.90;99.90;;;;;;6123706;23;20298;-77
2021/01/15 14:11:30;;;;;;;3.80;2.65;;;6.90;99.90;;;;;;6124100;23;20139;-76
2021/01/15 14:13:56;;;;;;;4.90;3.63;;;6.90;99.90;;;;;;6124115;23;20175;-76
2021/01/15 14:16:27;;;;;;;4.30;3.23;;;6.90;99.90;;;;;;6122726;23;20147;-76
2021/01/15 14:18:58;;;;;;;6.28;4.88;;;6.90;99.90;;;;;;6121189;23;20758;-79
2021/01/15 14:21:24;;;;;;;4.57;3.83;;;6.70;99.90;;;;;;6097728;23;20159;-77
2021/01/15 14:23:50;;;;;;;5.00;4.50;;;6.70;99.90;;;;;;6124422;23;20614;-77
2021/01/15 14:26:15;;;;;;;7.90;5.00;;;6.70;99.90;;;;;;6123961;23;21043;-77
2021/01/15 14:28:41;;;;;;;6.30;4.60;;;6.60;99.90;;;;;;6123326;23;20894;-77
2021/01/15 14:31:07;;;;;;;6.10;4.53;;;6.60;99.90;;;;;;6123813;23;20578;-77
2021/01/15 14:33:33;;;;;;;5.80;4.97;;;6.60;99.90;;;;;;6122501;23;20163;-77
2021/01/15 14:35:59;;;;;;;7.40;5.60;;;6.60;99.90;;;;;;6123845;23;20519;-76
2021/01/15 14:38:25;;;;;;;6.37;5.70;;;6.50;99.90;;;;;;6123264;23;20586;-76
2021/01/15 14:40:50;;;;;;;7.07;4.90;;;6.40;99.90;;;;;;6123379;23;21195;-77
2021/01/15 14:43:16;;;;;;;6.87;5.03;;;6.40;99.90;;;;;;6127048;23;20147;-77
2021/01/15 14:45:42;;;;;;;6.47;5.50;;;6.40;99.90;;;;;;6123921;23;20551;-77
2021/01/15 14:48:08;;;;;;;7.43;5.93;;;6.40;99.90;;;;;;6122809;23;20557;-77
2021/01/15 14:50:34;;;;;;;8.80;5.20;;;6.30;99.90;;;;;;6094851;23;20531;-77
2021/01/15 14:53:00;;;;;;;6.35;5.63;;;6.30;99.90;;;;;;6122535;23;20162;-77
2021/01/15 14:55:31;;;;;;;6.07;5.15;;;6.20;99.90;;;;;;6121499;23;20468;-77
2021/01/15 14:57:58;;;;;;;7.30;6.57;;;6.20;99.90;;;;;;6123891;23;20194;-77
2021/01/15 15:00:24;;;;;;;5.80;5.03;;;6.10;99.90;;;;;;6099197;23;20226;-78
2021/01/15 15:02:51;;;;;;;7.07;6.37;;;6.10;99.90;;;;;;6124726;23;20178;-78
2021/01/15 15:05:17;;;;;;;10.10;8.50;;;6.00;99.90;;;;;;6122695;23;20689;-78
2021/01/15 15:07:48;;;;;;;12.93;9.73;;;5.90;99.90;;;;;;6124985;23;20900;-78
2021/01/15 15:10:15;;;;;;;13.73;8.98;;;5.90;99.90;;;;;;6126502;23;20152;-78
2021/01/15 15:12:41;;;;;;;16.35;9.82;;;5.90;99.90;;;;;;6128662;23;20143;-78